createdAt,value
2024-01-11T00:00:49.561Z,37.77
2024-01-11T00:03:17.930Z,40.93
2024-01-11T00:05:46.396Z,38.50
2024-01-11T00:08:14.841Z,39.40
2024-01-11T00:10:43.145Z,40.53
2024-01-11T00:13:11.677Z,38.00
2024-01-11T00:15:41.455Z,43.27
2024-01-11T00:18:09.868Z,35.47
2024-01-11T00:20:38.237Z,37.27
2024-01-11T00:23:06.699Z,37.97
2024-01-11T00:25:35.027Z,38.57
2024-01-11T00:28:04.189Z,40.77
2024-01-11T00:30:32.533Z,39.57
2024-01-11T00:33:02.383Z,40.43
2024-01-11T00:35:30.900Z,35.73
2024-01-11T00:37:59.271Z,40.80
2024-01-11T00:40:27.587Z,39.30
2024-01-11T00:42:55.942Z,37.40
2024-01-11T00:45:24.358Z,35.20
2024-01-11T00:47:52.884Z,40.00
2024-01-11T00:50:22.697Z,35.10
2024-01-11T00:52:51.047Z,44.23
2024-01-11T00:55:19.353Z,43.03
2024-01-11T00:57:47.622Z,46.20
2024-01-11T01:00:16.619Z,44.53
2024-01-11T01:02:45.437Z,43.33
2024-01-11T01:05:14.148Z,40.37
2024-01-11T01:07:43.864Z,45.83
2024-01-11T01:10:15.482Z,45.13
2024-01-11T01:12:43.891Z,45.43
2024-01-11T01:15:12.444Z,41.10
2024-01-11T01:17:40.819Z,42.13
2024-01-11T01:20:10.948Z,43.13
2024-01-11T01:22:39.428Z,40.70
2024-01-11T01:25:10.179Z,42.37
2024-01-11T01:27:38.621Z,40.53
2024-01-11T01:30:10.054Z,36.97
2024-01-11T01:32:38.760Z,45.23
2024-01-11T01:35:07.567Z,44.50
2024-01-11T01:37:35.914Z,43.40
2024-01-11T01:40:04.754Z,43.83
2024-01-11T01:42:34.645Z,44.67
2024-01-11T01:45:03.132Z,40.53
2024-01-11T01:47:32.055Z,44.37
2024-01-11T01:50:00.557Z,40.73
2024-01-11T01:52:29.065Z,43.80
2024-01-11T01:55:00.284Z,43.67
2024-01-11T01:57:33.458Z,39.77
2024-01-11T02:00:03.021Z,45.90
2024-01-11T02:02:33.253Z,43.43
2024-01-11T02:05:01.977Z,42.37
2024-01-11T02:07:30.392Z,45.27
2024-01-11T02:09:58.821Z,43.33
2024-01-11T02:12:28.398Z,46.63
2024-01-11T02:14:58.349Z,45.53
2024-01-11T02:17:26.878Z,49.53
2024-01-11T02:19:55.387Z,44.00
2024-01-11T02:22:26.962Z,41.80
2024-01-11T02:24:58.716Z,42.70
2024-01-11T02:27:27.087Z,46.17
2024-01-11T02:29:55.478Z,46.47
2024-01-11T02:32:24.484Z,49.97
2024-01-11T02:34:53.583Z,45.23
2024-01-11T02:37:22.043Z,46.93
2024-01-11T02:39:50.623Z,47.00
2024-01-11T02:42:20.393Z,43.40
2024-01-11T02:44:49.829Z,43.13
2024-01-11T02:47:18.390Z,45.67
2024-01-11T02:49:49.310Z,44.67
2024-01-11T02:52:17.727Z,43.27
2024-01-11T02:54:45.987Z,46.17
2024-01-11T02:57:14.316Z,50.57
2024-01-11T02:59:46.784Z,47.10
2024-01-11T03:02:15.205Z,49.07
2024-01-11T03:04:43.503Z,44.67
2024-01-11T03:07:12.004Z,50.83
2024-01-11T03:09:40.389Z,49.23
2024-01-11T03:12:09.071Z,44.17
2024-01-11T03:14:37.524Z,47.50
2024-01-11T03:17:08.171Z,41.47
2024-01-11T03:19:36.532Z,44.23
2024-01-11T03:22:07.928Z,48.67
2024-01-11T03:24:39.793Z,48.87
2024-01-11T03:27:08.130Z,47.33
2024-01-11T03:29:36.478Z,45.43
2024-01-11T03:32:07.770Z,43.60
2024-01-11T03:34:36.170Z,43.33
2024-01-11T03:37:04.657Z,45.77
2024-01-11T03:39:33.025Z,47.37
2024-01-11T03:42:01.330Z,44.17
2024-01-11T03:44:32.574Z,46.77
2024-01-11T03:47:01.033Z,49.37
2024-01-11T03:49:30.723Z,41.60
2024-01-11T03:52:01.753Z,46.07
2024-01-11T03:54:30.167Z,46.53
2024-01-11T03:56:58.481Z,47.10
2024-01-11T03:59:27.898Z,49.10
2024-01-11T04:01:56.417Z,51.60
2024-01-11T04:04:24.838Z,49.17
2024-01-11T04:06:55.238Z,48.00
2024-01-11T04:09:23.587Z,47.33
2024-01-11T04:11:52.025Z,43.77
2024-01-11T04:14:23.144Z,46.77
2024-01-11T04:16:51.547Z,43.60
2024-01-11T04:19:23.260Z,49.03
2024-01-11T04:21:52.153Z,48.67
2024-01-11T04:24:24.607Z,46.10
2024-01-11T04:26:55.667Z,43.37
2024-01-11T04:29:24.099Z,47.17
2024-01-11T04:31:52.411Z,46.97
2024-01-11T04:34:20.862Z,47.63
2024-01-11T04:36:49.197Z,45.63
2024-01-11T04:39:17.540Z,43.50
2024-01-11T04:41:50.856Z,48.53
2024-01-11T04:44:19.299Z,47.07
2024-01-11T04:46:47.623Z,47.67
2024-01-11T04:49:15.999Z,44.60
2024-01-11T04:51:44.336Z,48.30
2024-01-11T04:54:14.823Z,48.07
2024-01-11T04:56:43.162Z,46.00
2024-01-11T04:59:12.952Z,46.30
2024-01-11T05:01:42.173Z,43.20
2024-01-11T05:04:11.450Z,47.23
2024-01-11T05:06:39.849Z,47.77
2024-01-11T05:09:08.183Z,50.37
2024-01-11T05:11:36.590Z,48.27
2024-01-11T05:14:04.960Z,46.93
2024-01-11T05:16:36.666Z,49.80
2024-01-11T05:19:05.087Z,46.67
2024-01-11T05:21:33.462Z,43.80
2024-01-11T05:24:01.938Z,48.33
2024-01-11T05:26:30.327Z,45.67
2024-01-11T05:29:01.344Z,46.57
2024-01-11T05:31:29.750Z,46.73
2024-01-11T05:34:00.009Z,48.67
2024-01-11T05:36:28.433Z,48.53
2024-01-11T05:38:56.704Z,48.53
2024-01-11T05:41:25.082Z,52.20
2024-01-11T05:43:53.517Z,47.87
2024-01-11T05:46:21.903Z,47.93
2024-01-11T05:48:50.541Z,45.30
2024-01-11T05:51:20.332Z,48.70
2024-01-11T05:53:51.813Z,45.50
2024-01-11T05:56:22.498Z,47.27
2024-01-11T05:58:53.866Z,48.67
2024-01-11T06:01:22.681Z,49.07
2024-01-11T06:03:56.894Z,45.50
2024-01-11T06:06:26.631Z,45.57
2024-01-11T06:08:54.963Z,48.63
2024-01-11T06:11:23.368Z,47.47
2024-01-11T06:13:51.733Z,45.63
2024-01-11T06:16:20.022Z,50.67
2024-01-11T06:18:48.487Z,48.17
2024-01-11T06:21:18.248Z,50.07
2024-01-11T06:23:48.099Z,47.10
2024-01-11T06:26:16.538Z,52.27
2024-01-11T06:28:44.836Z,52.07
2024-01-11T06:31:13.278Z,52.30
2024-01-11T06:33:42.301Z,48.13
2024-01-11T06:36:10.705Z,48.70
2024-01-11T06:38:39.189Z,48.63
2024-01-11T06:41:09.003Z,48.10
2024-01-11T06:43:37.441Z,46.53
2024-01-11T06:46:06.986Z,49.20
2024-01-11T06:48:35.701Z,52.77
2024-01-11T06:51:04.448Z,51.80
2024-01-11T06:53:32.867Z,50.50
2024-01-11T06:56:01.279Z,52.03
2024-01-11T06:58:31.036Z,52.40
2024-01-11T07:00:59.436Z,53.40
2024-01-11T07:03:27.940Z,52.73
2024-01-11T07:05:56.360Z,50.07
2024-01-11T07:08:24.799Z,53.83
2024-01-11T07:10:53.251Z,55.70
2024-01-11T07:13:21.902Z,51.07
2024-01-11T07:15:52.958Z,55.27
2024-01-11T07:18:21.424Z,52.17
2024-01-11T07:20:50.026Z,49.53
2024-01-11T07:23:18.617Z,48.50
2024-01-11T07:25:47.079Z,49.63
2024-01-11T07:28:15.527Z,50.93
2024-01-11T07:30:44.009Z,49.77
2024-01-11T07:33:13.991Z,50.40
2024-01-11T07:35:42.613Z,48.83
2024-01-11T07:38:11.460Z,50.63
2024-01-11T07:40:43.546Z,49.00
2024-01-11T07:43:16.000Z,49.60
2024-01-11T07:45:44.420Z,48.87
2024-01-11T07:48:14.513Z,49.63
2024-01-11T07:50:43.043Z,58.53
2024-01-11T07:53:12.298Z,63.77
2024-01-11T07:55:43.030Z,60.57
2024-01-11T07:58:13.173Z,58.37
2024-01-11T08:00:41.603Z,51.73
2024-01-11T08:03:10.868Z,57.27
2024-01-11T08:05:40.876Z,50.77
2024-01-11T08:08:09.401Z,56.47
2024-01-11T08:10:37.752Z,61.17
2024-01-11T08:13:06.479Z,63.53
2024-01-11T08:15:35.440Z,58.13
2024-01-11T08:18:04.430Z,60.70
2024-01-11T08:20:33.961Z,60.07
2024-01-11T08:23:04.942Z,57.10
2024-01-11T08:25:33.466Z,54.27
2024-01-11T08:28:01.925Z,54.53
2024-01-11T08:30:30.294Z,58.57
2024-01-11T08:32:58.742Z,60.40
2024-01-11T08:35:27.458Z,56.00
2024-01-11T08:37:56.205Z,59.03
2024-01-11T08:40:26.645Z,53.07
2024-01-11T08:42:55.372Z,56.20
2024-01-11T08:45:23.760Z,51.67
2024-01-11T08:47:52.958Z,55.07
2024-01-11T08:50:24.309Z,56.20
2024-01-11T08:52:55.298Z,51.50
2024-01-11T08:55:25.043Z,59.73
2024-01-11T08:57:53.408Z,50.37
2024-01-11T09:00:22.233Z,55.37
2024-01-11T09:02:50.961Z,53.73
2024-01-11T09:05:19.879Z,52.77
2024-01-11T09:07:49.761Z,53.40
2024-01-11T09:10:19.540Z,47.57
2024-01-11T09:12:49.764Z,51.67
2024-01-11T09:15:18.414Z,60.93
2024-01-11T09:17:47.009Z,49.20
2024-01-11T09:20:16.251Z,58.67
2024-01-11T09:22:44.942Z,56.80
2024-01-11T09:25:13.333Z,48.40
2024-01-11T09:27:42.070Z,49.17
2024-01-11T09:30:13.438Z,45.57
2024-01-11T09:32:42.100Z,52.60
2024-01-11T09:35:14.962Z,52.00
2024-01-11T09:37:47.438Z,49.27
2024-01-11T09:40:16.109Z,47.23
2024-01-11T09:42:44.507Z,47.50
2024-01-11T09:45:18.193Z,47.57
2024-01-11T09:47:48.250Z,49.17
2024-01-11T09:50:19.372Z,49.67
2024-01-11T09:52:49.809Z,51.60
2024-01-11T09:55:18.948Z,53.10
2024-01-11T09:57:49.497Z,49.30
2024-01-11T10:00:25.088Z,50.50
2024-01-11T10:02:54.241Z,54.83
2024-01-11T10:05:22.954Z,53.30
2024-01-11T10:07:51.411Z,49.37
2024-01-11T10:10:19.908Z,52.57
2024-01-11T10:12:49.862Z,53.53
2024-01-11T10:15:19.885Z,49.93
2024-01-11T10:17:49.254Z,53.27
2024-01-11T10:20:19.134Z,46.07
2024-01-11T10:22:49.341Z,50.07
2024-01-11T10:25:19.304Z,52.33
2024-01-11T10:27:48.168Z,46.73
2024-01-11T10:30:24.519Z,46.33
2024-01-11T10:32:52.992Z,43.97
2024-01-11T10:35:22.804Z,52.27
2024-01-11T10:37:56.181Z,50.03
2024-01-11T10:40:26.824Z,47.20
2024-01-11T10:42:56.760Z,47.53
2024-01-11T10:45:28.158Z,50.33
2024-01-11T10:48:04.366Z,48.83
2024-01-11T10:50:37.156Z,51.87
2024-01-11T10:53:14.859Z,46.70
2024-01-11T10:55:44.861Z,48.50
2024-01-11T10:58:16.717Z,45.37
2024-01-11T11:00:48.067Z,43.30
2024-01-11T11:03:18.442Z,46.23
2024-01-11T11:05:48.936Z,52.17
2024-01-11T11:08:18.790Z,50.87
2024-01-11T11:10:49.789Z,46.47
2024-01-11T11:13:19.804Z,48.03
2024-01-11T11:15:51.275Z,46.83
2024-01-11T11:18:20.821Z,43.00
2024-01-11T11:20:51.497Z,47.17
2024-01-11T11:23:21.451Z,52.27
2024-01-11T11:25:51.498Z,45.20
2024-01-11T11:28:20.994Z,45.63
2024-01-11T11:30:54.628Z,47.50
2024-01-11T11:33:26.631Z,46.27
2024-01-11T11:35:57.657Z,46.30
2024-01-11T11:38:28.177Z,50.03
2024-01-11T11:40:59.147Z,48.90
2024-01-11T11:43:31.861Z,48.23
2024-01-11T11:46:08.754Z,48.03
2024-01-11T11:48:55.539Z,44.07
2024-01-11T11:51:27.820Z,47.70
2024-01-11T11:53:57.562Z,46.50
2024-01-11T11:56:27.000Z,47.70
2024-01-11T11:58:56.522Z,44.57
2024-01-11T12:01:26.768Z,44.77
2024-01-11T12:03:55.558Z,46.20
2024-01-11T12:06:26.374Z,45.70
2024-01-11T12:08:58.200Z,44.27
2024-01-11T12:11:27.983Z,47.43
2024-01-11T12:13:58.941Z,46.77
2024-01-11T12:16:29.847Z,48.20
2024-01-11T12:18:58.538Z,47.43
2024-01-11T12:21:28.256Z,43.50
2024-01-11T12:23:57.310Z,45.57
2024-01-11T12:26:26.172Z,48.40
2024-01-11T12:28:55.084Z,44.83
2024-01-11T12:31:24.786Z,51.97
2024-01-11T12:33:56.155Z,48.53
2024-01-11T12:36:24.869Z,45.80
2024-01-11T12:38:53.976Z,47.20
2024-01-11T12:41:24.504Z,49.20
2024-01-11T12:43:53.977Z,47.57
2024-01-11T12:46:22.686Z,47.83
2024-01-11T12:48:52.754Z,46.43
2024-01-11T12:51:23.913Z,45.20
2024-01-11T12:53:55.405Z,53.53
2024-01-11T12:56:24.785Z,44.30
2024-01-11T12:58:53.839Z,48.43
2024-01-11T13:01:22.660Z,47.97
2024-01-11T13:03:51.922Z,45.10
2024-01-11T13:06:23.099Z,45.27
2024-01-11T13:08:51.683Z,46.53
2024-01-11T13:11:22.421Z,47.97
2024-01-11T13:13:51.114Z,44.60
2024-01-11T13:16:20.555Z,45.40
2024-01-11T13:18:49.585Z,44.97
2024-01-11T13:21:18.270Z,44.37
2024-01-11T13:23:48.763Z,48.53
2024-01-11T13:26:17.684Z,46.43
2024-01-11T13:28:46.149Z,43.47
2024-01-11T13:31:14.599Z,49.73
2024-01-11T13:33:43.325Z,46.47
2024-01-11T13:36:12.158Z,45.43
2024-01-11T13:38:41.200Z,49.87
2024-01-11T13:41:11.064Z,42.13
2024-01-11T13:43:39.697Z,50.60
2024-01-11T13:46:08.345Z,40.63
2024-01-11T13:48:37.101Z,42.70
2024-01-11T13:51:06.379Z,40.67
2024-01-11T13:53:34.888Z,46.93
2024-01-11T13:56:03.590Z,47.00
2024-01-11T13:58:33.952Z,47.10
2024-01-11T14:01:03.159Z,47.70
2024-01-11T14:03:31.712Z,45.17
2024-01-11T14:06:01.543Z,46.53
2024-01-11T14:08:30.481Z,48.00
2024-01-11T14:10:58.998Z,48.33
2024-01-11T14:13:27.440Z,47.87
2024-01-11T14:15:57.419Z,47.30
2024-01-11T14:18:27.342Z,46.97
2024-01-11T14:20:56.013Z,50.60
2024-01-11T14:23:24.748Z,48.47
2024-01-11T14:25:53.398Z,44.83
2024-01-11T14:28:24.889Z,48.13
2024-01-11T14:30:58.040Z,49.20
2024-01-11T14:33:26.594Z,45.67
2024-01-11T14:35:55.415Z,46.03
2024-01-11T14:38:24.960Z,42.00
2024-01-11T14:40:53.445Z,48.00
2024-01-11T14:43:22.954Z,50.90
2024-01-11T14:45:54.798Z,49.10
2024-01-11T14:48:25.774Z,51.23
2024-01-11T14:50:54.664Z,47.47
2024-01-11T14:53:23.302Z,50.00
2024-01-11T14:55:51.972Z,56.73
2024-01-11T14:58:20.492Z,44.73
2024-01-11T15:00:49.821Z,46.93
2024-01-11T15:03:20.514Z,44.97
2024-01-11T15:05:50.782Z,47.43
2024-01-11T15:08:19.876Z,46.30
2024-01-11T15:10:48.767Z,50.47
2024-01-11T15:13:17.512Z,48.80
2024-01-11T15:15:46.174Z,47.70
2024-01-11T15:18:14.851Z,47.70
2024-01-11T15:20:44.032Z,51.90
2024-01-11T15:23:13.986Z,46.73
2024-01-11T15:25:43.329Z,53.57
2024-01-11T15:28:14.701Z,49.83
2024-01-11T15:30:43.171Z,50.73
2024-01-11T15:33:12.640Z,48.30
2024-01-11T15:35:41.438Z,51.10
2024-01-11T15:38:10.691Z,46.53
2024-01-11T15:40:40.683Z,50.30
2024-01-11T15:43:09.163Z,49.27
2024-01-11T15:45:37.924Z,48.63
2024-01-11T15:48:08.125Z,47.20
2024-01-11T15:50:37.172Z,48.97
2024-01-11T15:53:06.106Z,46.77
2024-01-11T15:55:34.972Z,49.83
2024-01-11T15:58:05.313Z,52.33
2024-01-11T16:00:33.713Z,54.73
2024-01-11T16:03:02.162Z,48.27
2024-01-11T16:05:31.020Z,55.63
2024-01-11T16:07:59.506Z,54.50
2024-01-11T16:10:28.093Z,52.47
2024-01-11T16:12:56.758Z,56.63
2024-01-11T16:15:26.948Z,51.20
2024-01-11T16:17:55.646Z,51.53
2024-01-11T16:20:24.345Z,56.60
2024-01-11T16:22:53.217Z,52.57
2024-01-11T16:25:21.677Z,57.47
2024-01-11T16:27:50.291Z,52.07
2024-01-11T16:30:19.301Z,57.43
2024-01-11T16:32:49.298Z,54.63
2024-01-11T16:35:18.061Z,50.83
2024-01-11T16:37:46.628Z,52.23
2024-01-11T16:40:15.456Z,52.87
2024-01-11T16:42:44.102Z,53.97
2024-01-11T16:45:13.150Z,56.30
2024-01-11T16:47:41.889Z,54.63
2024-01-11T16:50:12.750Z,56.17
2024-01-11T16:52:41.233Z,51.87
2024-01-11T16:55:10.952Z,53.70
2024-01-11T16:57:40.609Z,56.30
2024-01-11T17:00:10.212Z,56.83
2024-01-11T17:02:38.890Z,54.97
2024-01-11T17:05:07.939Z,54.87
2024-01-11T17:07:38.057Z,56.23
2024-01-11T17:10:07.805Z,58.93
2024-01-11T17:12:36.271Z,58.27
2024-01-11T17:15:05.180Z,56.37
2024-01-11T17:17:33.840Z,58.13
2024-01-11T17:20:02.369Z,56.80
2024-01-11T17:22:30.914Z,57.27
2024-01-11T17:25:00.797Z,55.40
2024-01-11T17:27:29.286Z,52.70
2024-01-11T17:29:57.772Z,58.70
2024-01-11T17:32:26.289Z,55.07
2024-01-11T17:34:56.685Z,57.87
2024-01-11T17:37:26.769Z,56.40
2024-01-11T17:39:55.835Z,62.27
2024-01-11T17:42:25.822Z,59.53
2024-01-11T17:44:55.995Z,61.17
2024-01-11T17:47:24.641Z,60.20
2024-01-11T17:49:53.306Z,50.73
2024-01-11T17:52:22.365Z,55.83
2024-01-11T17:54:50.908Z,56.20
2024-01-11T17:57:19.388Z,56.83
2024-01-11T17:59:49.429Z,59.97
2024-01-11T18:02:18.002Z,57.07
2024-01-11T18:04:46.826Z,51.67
2024-01-11T18:07:15.307Z,61.07
2024-01-11T18:09:43.710Z,63.07
2024-01-11T18:12:12.351Z,65.50
2024-01-11T18:14:42.035Z,74.50
2024-01-11T18:17:12.297Z,61.57
2024-01-11T18:19:42.080Z,57.47
2024-01-11T18:22:10.697Z,58.80
2024-01-11T18:24:39.920Z,56.07
2024-01-11T18:27:09.610Z,58.17
2024-01-11T18:29:38.127Z,62.20
2024-01-11T18:32:08.270Z,58.67
2024-01-11T18:34:38.267Z,55.63
2024-01-11T18:37:06.998Z,64.13
2024-01-11T18:39:35.441Z,60.10
2024-01-11T18:42:04.408Z,60.73
2024-01-11T18:44:33.010Z,59.20
2024-01-11T18:47:01.506Z,60.90
2024-01-11T18:49:29.935Z,62.43
2024-01-11T18:51:59.920Z,61.13
2024-01-11T18:54:28.539Z,57.80
2024-01-11T18:56:57.089Z,58.73
2024-01-11T18:59:25.772Z,61.47
2024-01-11T19:01:54.308Z,68.90
2024-01-11T19:04:22.892Z,65.93
2024-01-11T19:06:51.803Z,65.27
2024-01-11T19:09:21.826Z,62.67
2024-01-11T19:11:51.772Z,66.80
2024-01-11T19:14:20.402Z,62.73
2024-01-11T19:16:49.343Z,65.80
2024-01-11T19:19:17.844Z,63.43
2024-01-11T19:21:47.208Z,60.87
2024-01-11T19:24:15.982Z,55.70
2024-01-11T19:26:50.816Z,54.97
2024-01-11T19:29:19.467Z,64.57
2024-01-11T19:31:48.749Z,56.90
2024-01-11T19:34:17.261Z,55.20
2024-01-11T19:36:45.981Z,54.47
2024-01-11T19:39:14.465Z,56.77
2024-01-11T19:41:43.055Z,55.93
2024-01-11T19:44:13.348Z,59.27
2024-01-11T19:46:47.802Z,54.33
2024-01-11T19:49:16.676Z,55.17
2024-01-11T19:51:45.181Z,56.97
2024-01-11T19:54:15.024Z,57.10
2024-01-11T19:56:43.517Z,52.57
2024-01-11T19:59:14.277Z,62.97
2024-01-11T20:01:43.712Z,60.07
2024-01-11T20:04:12.293Z,58.53
2024-01-11T20:06:43.106Z,60.70
2024-01-11T20:09:12.439Z,57.63
2024-01-11T20:11:41.401Z,58.20
2024-01-11T20:14:11.030Z,57.37
2024-01-11T20:16:40.994Z,54.40
2024-01-11T20:19:10.052Z,55.00
2024-01-11T20:21:38.482Z,60.30
2024-01-11T20:24:08.018Z,58.60
2024-01-11T20:26:37.443Z,60.23
2024-01-11T20:29:05.900Z,63.40
2024-01-11T20:31:34.681Z,52.00
2024-01-11T20:34:07.257Z,59.00
2024-01-11T20:36:35.977Z,57.77
2024-01-11T20:39:04.769Z,53.90
2024-01-11T20:41:33.407Z,61.33
2024-01-11T20:44:01.919Z,60.17
2024-01-11T20:46:30.547Z,59.93
2024-01-11T20:48:59.088Z,53.63
2024-01-11T20:51:29.287Z,66.90
2024-01-11T20:54:00.843Z,57.43
2024-01-11T20:56:31.974Z,59.23
2024-01-11T20:59:00.746Z,54.97
2024-01-11T21:01:29.285Z,59.13
2024-01-11T21:03:59.233Z,58.50
2024-01-11T21:06:29.924Z,57.33
2024-01-11T21:08:58.447Z,63.83
2024-01-11T21:11:26.844Z,58.47
2024-01-11T21:13:55.357Z,61.23
2024-01-11T21:16:23.919Z,66.27
2024-01-11T21:18:55.088Z,63.17
2024-01-11T21:21:24.757Z,58.77
2024-01-11T21:23:57.737Z,58.63
2024-01-11T21:26:26.950Z,59.50
2024-01-11T21:28:55.717Z,57.40
2024-01-11T21:31:25.024Z,58.37
2024-01-11T21:33:57.524Z,57.90
2024-01-11T21:36:26.543Z,62.30
2024-01-11T21:38:59.313Z,62.50
2024-01-11T21:41:29.245Z,61.10
2024-01-11T21:43:58.432Z,60.17
2024-01-11T21:46:29.628Z,61.47
2024-01-11T21:49:00.120Z,60.70
2024-01-11T21:51:28.674Z,60.10
2024-01-11T21:53:59.317Z,62.37
2024-01-11T21:56:30.884Z,62.27
2024-01-11T21:58:59.772Z,62.27
2024-01-11T22:01:30.252Z,64.07
2024-01-11T22:03:58.882Z,57.53
2024-01-11T22:06:27.589Z,58.60
2024-01-11T22:08:59.639Z,63.87
2024-01-11T22:11:31.045Z,66.50
2024-01-11T22:13:59.862Z,64.03
2024-01-11T22:16:28.626Z,66.80
2024-01-11T22:18:57.704Z,66.90
2024-01-11T22:21:28.726Z,67.07
2024-01-11T22:23:59.451Z,64.23
2024-01-11T22:26:30.360Z,60.57
2024-01-11T22:28:58.893Z,61.37
2024-01-11T22:31:34.271Z,64.13
2024-01-11T22:34:03.395Z,63.17
2024-01-11T22:36:32.020Z,65.73
2024-01-11T22:39:01.941Z,66.37
2024-01-11T22:41:31.133Z,60.80
2024-01-11T22:44:00.794Z,65.93
2024-01-11T22:46:29.938Z,65.67
2024-01-11T22:48:58.479Z,66.27
2024-01-11T22:51:27.495Z,59.63
2024-01-11T22:53:56.515Z,60.77
2024-01-11T22:56:27.691Z,68.73
2024-01-11T22:58:57.038Z,60.87
2024-01-11T23:01:25.657Z,65.80
2024-01-11T23:03:54.077Z,65.10
2024-01-11T23:06:22.723Z,64.40
2024-01-11T23:08:51.609Z,61.67
2024-01-11T23:11:20.196Z,65.00
2024-01-11T23:13:50.015Z,64.00
2024-01-11T23:16:18.409Z,65.13
2024-01-11T23:18:50.646Z,70.50
2024-01-11T23:21:19.112Z,61.93
2024-01-11T23:23:47.589Z,68.80
2024-01-11T23:26:16.245Z,65.40
2024-01-11T23:28:44.998Z,68.07
2024-01-11T23:31:16.384Z,60.87
2024-01-11T23:33:49.970Z,62.90
2024-01-11T23:36:18.762Z,62.73
2024-01-11T23:38:47.393Z,66.37
2024-01-11T23:41:16.598Z,64.70
2024-01-11T23:43:48.152Z,65.97
2024-01-11T23:46:17.930Z,65.77
2024-01-11T23:48:46.616Z,63.80
2024-01-11T23:51:15.309Z,72.30
2024-01-11T23:53:44.093Z,62.57
2024-01-11T23:56:12.494Z,62.13
2024-01-11T23:58:41.476Z,67.90
